Time;durP1;ratioP1;P1;durP2;ratioP2;P2;SDS_P1;SDS_P2;PMS_P1;PMS_P2;Temp;Humidity;BMP_temperature;BMP_pressure;BME280_temperature;BME280_humidity;BME280_pressure;Samples;Min_cycle;Max_cycle;Signal;HPM_P1;HPM_P2
2021/12/19 00:02:14;;;;;;;3.50;3.20;;;18.70;99.90;;;;;;4165809;28;20216;-75
2021/12/19 00:04:24;;;;;;;3.95;3.53;;;18.70;99.90;;;;;;4165909;28;20216;-75
2021/12/19 00:08:49;;;;;;;3.55;3.05;;;18.70;99.90;;;;;;4166227;28;20196;-75
2021/12/19 00:10:53;;;;;;;3.92;3.10;;;18.70;99.90;;;;;;4165557;28;20240;-75
2021/12/19 00:12:57;;;;;;;3.42;3.13;;;18.70;99.90;;;;;;4165502;28;20547;-75
2021/12/19 00:15:00;;;;;;;3.65;3.13;;;18.70;99.90;;;;;;4165787;28;20220;-75
2021/12/19 00:17:03;;;;;;;3.85;3.35;;;18.70;99.90;;;;;;4175297;28;20317;-75
2021/12/19 00:19:05;;;;;;;3.40;3.10;;;18.70;99.90;;;;;;4181730;28;20216;-75
2021/12/19 00:21:08;;;;;;;3.00;2.70;;;18.70;99.90;;;;;;4181580;28;20469;-75
2021/12/19 00:23:10;;;;;;;3.60;3.28;;;18.70;99.90;;;;;;4181595;28;20270;-75
2021/12/19 00:25:12;;;;;;;4.00;3.30;;;18.70;99.90;;;;;;4182083;28;20220;-75
2021/12/19 00:27:16;;;;;;;3.65;3.20;;;18.70;99.90;;;;;;4182021;28;20263;-75
2021/12/19 00:29:18;;;;;;;3.55;3.20;;;18.70;99.90;;;;;;4181511;28;20679;-75
2021/12/19 00:31:21;;;;;;;3.78;3.05;;;18.70;99.90;;;;;;4181914;28;20637;-75
2021/12/19 00:33:23;;;;;;;3.65;3.20;;;18.70;99.90;;;;;;4169815;28;20213;-75
2021/12/19 00:35:25;;;;;;;3.42;3.13;;;18.70;99.90;;;;;;4149070;28;20276;-75
2021/12/19 00:37:28;;;;;;;3.67;3.15;;;18.70;99.90;;;;;;4149229;28;20287;-75
2021/12/19 00:39:30;;;;;;;3.90;3.50;;;18.60;99.90;;;;;;4149324;28;20213;-75
2021/12/19 00:41:33;;;;;;;3.90;3.50;;;18.60;99.90;;;;;;4149419;28;20733;-75
2021/12/19 00:43:44;;;;;;;4.00;3.63;;;18.60;99.90;;;;;;4148904;28;20291;-75
2021/12/19 00:45:47;;;;;;;4.18;3.78;;;18.60;99.90;;;;;;4149073;28;20547;-75
2021/12/19 00:47:49;;;;;;;3.42;2.97;;;18.60;99.90;;;;;;4149177;28;20271;-75
2021/12/19 00:49:52;;;;;;;4.00;3.25;;;18.60;99.90;;;;;;4148886;28;20241;-75
2021/12/19 00:51:54;;;;;;;4.22;3.50;;;18.60;99.90;;;;;;4149372;28;20248;-75
2021/12/19 00:53:56;;;;;;;3.85;3.38;;;18.60;99.90;;;;;;4148794;28;20224;-75
2021/12/19 00:55:59;;;;;;;4.32;3.38;;;18.60;99.90;;;;;;4148710;28;20221;-75
2021/12/19 00:58:01;;;;;;;4.03;3.60;;;18.60;99.90;;;;;;4148427;28;20212;-75
2021/12/19 01:00:07;;;;;;;4.15;3.65;;;18.60;99.90;;;;;;4148898;28;20217;-75
2021/12/19 01:02:09;;;;;;;3.95;3.35;;;18.60;99.90;;;;;;4148122;28;20221;-75
2021/12/19 01:04:19;;;;;;;5.22;3.83;;;18.60;99.90;;;;;;4148724;28;20267;-75
2021/12/19 01:06:21;;;;;;;4.05;3.50;;;18.60;99.90;;;;;;4149082;28;20221;-75
2021/12/19 01:08:24;;;;;;;4.03;3.63;;;18.60;99.90;;;;;;4148240;28;20256;-75
2021/12/19 01:10:26;;;;;;;4.55;3.50;;;18.60;99.90;;;;;;4148693;28;20240;-75
2021/12/19 01:12:29;;;;;;;3.92;3.42;;;18.60;99.90;;;;;;4148463;28;20278;-75
2021/12/19 01:14:31;;;;;;;3.80;3.42;;;18.60;99.90;;;;;;4148344;28;20213;-75
2021/12/19 01:16:35;;;;;;;4.10;3.45;;;18.60;99.90;;;;;;4159625;28;20254;-75
2021/12/19 01:18:38;;;;;;;4.18;3.60;;;18.60;99.90;;;;;;4181375;28;20307;-75
2021/12/19 01:20:42;;;;;;;4.13;3.72;;;18.60;99.90;;;;;;4181055;28;20219;-75
2021/12/19 01:22:44;;;;;;;4.53;3.90;;;18.60;99.90;;;;;;4181214;28;20212;-75
2021/12/19 01:24:47;;;;;;;4.13;3.60;;;18.50;99.90;;;;;;4181582;28;20215;-75
2021/12/19 01:26:49;;;;;;;3.63;3.33;;;18.50;99.90;;;;;;4181264;28;20216;-75
2021/12/19 01:28:51;;;;;;;4.50;3.75;;;18.50;99.90;;;;;;4180997;28;20227;-75
2021/12/19 01:30:54;;;;;;;4.05;3.65;;;18.50;99.90;;;;;;4180997;28;20262;-75
2021/12/19 01:32:57;;;;;;;4.40;3.90;;;18.50;99.90;;;;;;4180966;28;20270;-75
2021/12/19 01:35:00;;;;;;;4.53;3.70;;;18.50;99.90;;;;;;4173618;28;20274;-75
2021/12/19 01:37:03;;;;;;;4.63;4.13;;;18.50;99.90;;;;;;4164586;28;20259;-75
2021/12/19 01:39:05;;;;;;;4.28;3.88;;;18.50;99.90;;;;;;4164235;28;20216;-75
2021/12/19 01:41:07;;;;;;;4.00;3.60;;;18.50;99.90;;;;;;4164370;28;20542;-75
2021/12/19 01:43:10;;;;;;;4.78;4.28;;;18.50;99.90;;;;;;4164435;28;20236;-75
2021/12/19 01:45:14;;;;;;;4.18;3.78;;;18.50;99.90;;;;;;4164240;28;20219;-75
2021/12/19 01:47:16;;;;;;;3.88;3.47;;;18.50;99.90;;;;;;4152526;28;20276;-75
2021/12/19 01:49:23;;;;;;;4.35;3.80;;;18.50;99.90;;;;;;4148212;28;20221;-75
2021/12/19 01:51:25;;;;;;;4.35;3.92;;;18.50;99.90;;;;;;4148103;28;20283;-75
2021/12/19 01:53:28;;;;;;;4.43;4.03;;;18.50;99.90;;;;;;4148294;28;20221;-75
2021/12/19 01:55:31;;;;;;;5.35;3.88;;;18.50;99.90;;;;;;4148102;28;20267;-75
2021/12/19 01:57:34;;;;;;;4.18;3.78;;;18.40;99.90;;;;;;4147905;28;20271;-75
2021/12/19 01:59:36;;;;;;;3.92;3.55;;;18.50;99.90;;;;;;4147987;28;20221;-75
2021/12/19 02:01:43;;;;;;;4.28;3.88;;;18.50;99.90;;;;;;4147820;28;20209;-75
2021/12/19 02:03:45;;;;;;;4.82;4.32;;;18.50;99.90;;;;;;4147721;28;20217;-75
2021/12/19 02:05:50;;;;;;;4.60;4.10;;;18.40;99.90;;;;;;4147820;28;20267;-75
2021/12/19 02:07:54;;;;;;;3.88;3.55;;;18.50;99.90;;;;;;4147582;28;20213;-75
2021/12/19 02:09:56;;;;;;;4.50;4.10;;;18.50;99.90;;;;;;4147834;28;21010;-75
2021/12/19 02:11:59;;;;;;;4.20;3.80;;;18.40;99.90;;;;;;4148312;28;20623;-75
2021/12/19 02:14:01;;;;;;;4.63;4.10;;;18.50;99.90;;;;;;4147609;28;20221;-75
2021/12/19 02:16:04;;;;;;;4.53;4.13;;;18.40;99.90;;;;;;4151313;28;20221;-75
2021/12/19 02:18:09;;;;;;;5.35;4.35;;;18.50;99.90;;;;;;4180619;28;20215;-75
2021/12/19 02:20:13;;;;;;;4.57;4.05;;;18.40;99.90;;;;;;4180826;28;20269;-75
2021/12/19 02:22:15;;;;;;;4.35;3.95;;;18.40;99.90;;;;;;4167614;28;20212;-75
2021/12/19 02:24:18;;;;;;;4.93;4.15;;;18.40;99.90;;;;;;4164140;28;20212;-75
2021/12/19 02:26:20;;;;;;;5.32;4.28;;;18.40;99.90;;;;;;4164369;28;20262;-74
2021/12/19 02:28:23;;;;;;;4.15;3.75;;;18.40;99.90;;;;;;4164169;28;20216;-75
2021/12/19 02:30:25;;;;;;;4.45;4.05;;;18.40;99.90;;;;;;4164285;28;20742;-75
2021/12/19 02:32:29;;;;;;;3.97;3.58;;;18.40;99.90;;;;;;4180416;28;20221;-75
2021/12/19 02:34:38;;;;;;;4.47;4.07;;;18.40;99.90;;;;;;4180756;28;20208;-75
2021/12/19 02:36:52;;;;;;;5.40;4.50;;;18.40;99.90;;;;;;4180546;28;20223;-75
2021/12/19 02:48:48;;;;;;;4.55;4.07;;;18.30;99.90;;;;;;4133212;28;20194;-75
2021/12/19 02:50:53;;;;;;;4.88;4.07;;;18.30;99.90;;;;;;4135217;28;20693;-75
2021/12/19 02:52:58;;;;;;;4.32;3.92;;;18.30;99.90;;;;;;4184188;28;20601;-75
2021/12/19 02:55:01;;;;;;;4.35;3.95;;;18.30;99.90;;;;;;4178247;28;20216;-75
2021/12/19 02:57:03;;;;;;;4.20;3.80;;;18.30;99.90;;;;;;4181758;28;20212;-75
2021/12/19 02:59:06;;;;;;;4.28;3.88;;;18.30;99.90;;;;;;4183528;28;20266;-75
2021/12/19 03:01:13;;;;;;;4.30;3.90;;;18.30;99.90;;;;;;4183476;28;20211;-75
2021/12/19 03:03:15;;;;;;;4.40;4.00;;;18.30;99.90;;;;;;4183507;28;20664;-75
2021/12/19 03:05:18;;;;;;;4.60;4.03;;;18.30;99.90;;;;;;4183311;28;20660;-75
2021/12/19 03:07:21;;;;;;;4.57;4.18;;;18.30;99.90;;;;;;4183526;28;20219;-75
2021/12/19 03:09:34;;;;;;;4.20;3.80;;;18.30;99.90;;;;;;4168859;28;20262;-75
2021/12/19 03:18:38;;;;;;;4.88;4.47;;;18.30;99.90;;;;;;4183510;28;20183;-75
2021/12/19 03:20:43;;;;;;;4.97;4.47;;;18.30;99.90;;;;;;4183315;28;20614;-75
2021/12/19 03:22:45;;;;;;;4.93;4.40;;;18.30;99.90;;;;;;4182806;28;20625;-75
2021/12/19 03:24:48;;;;;;;4.30;3.90;;;18.30;99.90;;;;;;4183323;28;20207;-75
2021/12/19 03:26:51;;;;;;;5.45;4.28;;;18.30;99.90;;;;;;4182872;28;20699;-75
2021/12/19 03:28:53;;;;;;;4.32;3.92;;;18.30;99.90;;;;;;4183014;28;20605;-75
2021/12/19 03:30:55;;;;;;;4.30;3.92;;;18.30;99.90;;;;;;4178267;28;20236;-75
2021/12/19 03:32:58;;;;;;;4.78;4.30;;;18.20;99.90;;;;;;4166641;28;20213;-75
2021/12/19 03:35:00;;;;;;;4.15;3.75;;;18.30;99.90;;;;;;4166699;28;20723;-75
2021/12/19 03:37:04;;;;;;;4.80;4.30;;;18.30;99.90;;;;;;4166579;28;20244;-75
2021/12/19 03:39:14;;;;;;;5.05;4.57;;;18.20;99.90;;;;;;4166658;28;20217;-75
2021/12/19 03:41:21;;;;;;;4.43;4.00;;;18.30;99.90;;;;;;4166404;28;20212;-75
2021/12/19 03:43:25;;;;;;;4.70;4.30;;;18.20;99.90;;;;;;4166312;28;20908;-75
2021/12/19 03:45:27;;;;;;;4.80;4.40;;;18.20;99.90;;;;;;4166410;28;20216;-75
2021/12/19 03:47:29;;;;;;;4.60;4.15;;;18.20;99.90;;;;;;4166654;28;20612;-75
2021/12/19 03:49:32;;;;;;;4.53;4.13;;;18.20;99.90;;;;;;4166414;28;20271;-75
2021/12/19 03:51:34;;;;;;;4.50;4.10;;;18.20;99.90;;;;;;4166232;28;20283;-75
2021/12/19 03:53:37;;;;;;;4.90;4.40;;;18.20;99.90;;;;;;4166501;28;20263;-75
2021/12/19 03:55:39;;;;;;;4.78;4.28;;;18.20;99.90;;;;;;4166214;28;20304;-75
2021/12/19 03:57:43;;;;;;;4.63;4.22;;;18.20;99.90;;;;;;4149768;28;20225;-75
2021/12/19 03:59:48;;;;;;;4.57;3.97;;;18.20;99.90;;;;;;4149470;28;20272;-75
2021/12/19 04:01:52;;;;;;;4.57;4.15;;;18.20;99.90;;;;;;4149831;28;20217;-74
2021/12/19 04:03:54;;;;;;;4.85;4.40;;;18.20;99.90;;;;;;4149655;28;20622;-75
2021/12/19 04:05:57;;;;;;;4.88;4.35;;;18.20;99.90;;;;;;4149711;28;20264;-75
2021/12/19 04:07:59;;;;;;;5.03;4.28;;;18.20;99.90;;;;;;4152256;28;20220;-75
2021/12/19 04:10:02;;;;;;;4.43;4.03;;;18.20;99.90;;;;;;4163187;28;20283;-75
2021/12/19 04:12:05;;;;;;;4.50;4.05;;;18.20;99.90;;;;;;4165633;28;20759;-75
2021/12/19 04:14:09;;;;;;;4.47;4.07;;;18.20;99.90;;;;;;4166000;28;20217;-75
2021/12/19 04:16:11;;;;;;;4.18;3.78;;;18.20;99.90;;;;;;4165722;28;20224;-75
2021/12/19 04:18:13;;;;;;;4.32;3.92;;;18.20;99.90;;;;;;4165866;28;20267;-75
2021/12/19 04:20:18;;;;;;;4.28;3.85;;;18.20;99.90;;;;;;4165965;28;20800;-75
2021/12/19 04:22:20;;;;;;;4.80;4.20;;;18.10;99.90;;;;;;4165351;28;20278;-75
2021/12/19 04:24:23;;;;;;;4.95;4.43;;;18.10;99.90;;;;;;4165809;28;20220;-75
2021/12/19 04:26:25;;;;;;;4.65;4.25;;;18.20;99.90;;;;;;4165784;28;20261;-75
2021/12/19 04:28:27;;;;;;;4.68;4.28;;;18.20;99.90;;;;;;4165733;28;20216;-75
2021/12/19 04:30:31;;;;;;;4.40;4.00;;;18.20;99.90;;;;;;4165585;28;20212;-75
2021/12/19 04:32:38;;;;;;;4.47;4.07;;;18.10;99.90;;;;;;4165137;28;20248;-75
2021/12/19 04:34:41;;;;;;;4.15;3.75;;;18.10;99.90;;;;;;4165423;28;20216;-75
2021/12/19 04:36:46;;;;;;;4.35;3.95;;;18.10;99.90;;;;;;4165405;28;20216;-75
2021/12/19 04:39:19;;;;;;;4.65;4.13;;;18.10;99.90;;;;;;4165359;28;20212;-75
2021/12/19 04:51:10;;;;;;;4.25;3.85;;;18.10;99.90;;;;;;4165624;28;20603;-75
2021/12/19 04:53:31;;;;;;;4.25;3.85;;;18.10;99.90;;;;;;4165265;28;20267;-75
2021/12/19 04:55:48;;;;;;;4.65;4.15;;;18.10;99.90;;;;;;4164997;28;20220;-75
2021/12/19 04:57:57;;;;;;;4.65;4.13;;;18.10;99.90;;;;;;4148728;28;20670;-75
2021/12/19 05:00:04;;;;;;;5.18;3.97;;;18.10;99.90;;;;;;4148946;28;20267;-75
2021/12/19 05:02:15;;;;;;;4.60;4.20;;;18.00;99.90;;;;;;4148875;28;20544;-75
2021/12/19 05:04:38;;;;;;;4.40;4.00;;;18.00;99.90;;;;;;4148702;28;20283;-75
2021/12/19 05:14:02;;;;;;;4.43;4.03;;;18.00;99.90;;;;;;4148690;28;20650;-75
2021/12/19 05:14:09;;;;;;;4.50;4.10;;;18.00;99.90;;;;;;4148872;28;20638;-74
2021/12/19 05:16:13;;;;;;;4.80;4.20;;;18.10;99.90;;;;;;4150796;28;20244;-75
2021/12/19 05:18:17;;;;;;;4.57;3.78;;;18.10;99.90;;;;;;4164927;28;20216;-75
2021/12/19 05:20:23;;;;;;;4.32;3.92;;;18.00;99.90;;;;;;4164901;28;20950;-75
2021/12/19 05:22:28;;;;;;;4.40;4.00;;;18.00;99.90;;;;;;4164872;28;20221;-75
2021/12/19 05:24:47;;;;;;;4.70;4.18;;;18.00;99.90;;;;;;4164957;28;20217;-75
2021/12/19 05:26:50;;;;;;;4.97;4.35;;;18.00;99.90;;;;;;4164860;28;20739;-75
2021/12/19 05:28:52;;;;;;;4.60;4.20;;;18.00;99.90;;;;;;4164416;28;20288;-74
2021/12/19 05:30:54;;;;;;;4.45;4.05;;;18.00;99.90;;;;;;4168811;28;20562;-75
2021/12/19 05:32:59;;;;;;;4.38;3.97;;;18.00;99.90;;;;;;4180900;28;20387;-75
2021/12/19 05:35:03;;;;;;;4.22;3.85;;;18.00;99.90;;;;;;4181003;28;20722;-75
2021/12/19 05:45:11;;;;;;;4.60;4.20;;;18.00;99.90;;;;;;4180878;28;20184;-75
2021/12/19 05:46:33;;;;;;;5.43;4.43;;;18.00;99.90;;;;;;4164516;28;20220;-75
2021/12/19 05:48:35;;;;;;;4.15;3.85;;;18.00;99.90;;;;;;4164555;28;20216;-75
2021/12/19 05:50:39;;;;;;;4.55;4.15;;;17.90;99.90;;;;;;4164245;28;20270;-75
2021/12/19 05:52:42;;;;;;;4.90;4.38;;;17.90;99.90;;;;;;4164206;28;20283;-75
2021/12/19 05:54:44;;;;;;;4.75;4.28;;;17.90;99.90;;;;;;4164373;28;20668;-75
2021/12/19 05:56:47;;;;;;;4.18;3.78;;;17.90;99.90;;;;;;4163976;28;20213;-75
2021/12/19 05:58:49;;;;;;;4.18;3.78;;;17.90;99.90;;;;;;4172642;28;20265;-75
2021/12/19 06:00:51;;;;;;;4.47;4.07;;;17.90;99.90;;;;;;4180866;28;20219;-75
2021/12/19 06:02:53;;;;;;;4.30;3.90;;;17.90;99.90;;;;;;4180388;28;20216;-75
2021/12/19 06:04:56;;;;;;;4.35;3.85;;;17.90;99.90;;;;;;4180770;28;20215;-75
2021/12/19 06:07:00;;;;;;;4.18;3.65;;;17.90;99.90;;;;;;4180411;28;20622;-75
2021/12/19 06:09:03;;;;;;;4.82;4.20;;;17.90;99.90;;;;;;4180316;28;20215;-75
2021/12/19 06:11:05;;;;;;;4.32;3.92;;;17.90;99.90;;;;;;4180439;28;20926;-75
2021/12/19 06:13:07;;;;;;;4.82;4.32;;;17.90;99.90;;;;;;4180586;28;20235;-75
2021/12/19 06:15:11;;;;;;;5.15;4.05;;;17.90;99.90;;;;;;4180517;28;20326;-75
2021/12/19 06:17:13;;;;;;;4.32;3.92;;;17.90;99.90;;;;;;4180422;28;20215;-74
2021/12/19 06:19:16;;;;;;;4.30;3.90;;;17.90;99.90;;;;;;4180753;28;20240;-75
2021/12/19 06:21:18;;;;;;;5.15;4.38;;;17.90;99.90;;;;;;4183680;28;20660;-75
2021/12/19 06:23:22;;;;;;;6.00;4.30;;;17.90;99.90;;;;;;4184098;28;20295;-75
2021/12/19 06:25:24;;;;;;;4.93;4.30;;;17.90;99.90;;;;;;4183824;28;20614;-75
2021/12/19 06:27:26;;;;;;;4.55;4.05;;;17.90;99.90;;;;;;4184125;28;20211;-75
2021/12/19 06:29:30;;;;;;;4.95;4.28;;;17.80;99.90;;;;;;4183779;28;20270;-74
2021/12/19 06:31:32;;;;;;;5.53;4.60;;;17.80;99.90;;;;;;4179480;28;20236;-75
2021/12/19 06:33:34;;;;;;;5.40;4.57;;;17.90;99.90;;;;;;4181169;28;20228;-75
2021/12/19 06:35:37;;;;;;;5.40;4.88;;;17.90;99.90;;;;;;4183697;28;20220;-75
2021/12/19 06:37:40;;;;;;;5.15;4.25;;;17.90;99.90;;;;;;4184534;28;20714;-75
2021/12/19 06:39:44;;;;;;;5.20;4.70;;;17.80;99.90;;;;;;4183936;28;20211;-74
2021/12/19 06:41:46;;;;;;;4.80;4.20;;;17.90;99.90;;;;;;4184176;28;20220;-75
2021/12/19 06:43:49;;;;;;;5.22;4.70;;;17.80;99.90;;;;;;4183467;28;20262;-75
2021/12/19 06:45:52;;;;;;;5.40;4.68;;;17.90;99.90;;;;;;4168684;28;20258;-75
2021/12/19 06:47:55;;;;;;;5.32;4.70;;;17.90;99.90;;;;;;4167446;28;20216;-75
2021/12/19 06:49:57;;;;;;;5.43;4.78;;;17.90;99.90;;;;;;4167173;28;20558;-74
2021/12/19 06:51:59;;;;;;;5.45;4.78;;;17.90;99.90;;;;;;4167300;28;20255;-75
2021/12/19 06:54:03;;;;;;;5.47;4.35;;;17.90;99.90;;;;;;4166819;28;20259;-75
2021/12/19 06:56:07;;;;;;;5.18;4.68;;;17.90;99.90;;;;;;4167231;28;20220;-75
2021/12/19 06:58:09;;;;;;;6.30;4.50;;;17.80;99.90;;;;;;4167140;28;20658;-75
2021/12/19 07:00:15;;;;;;;6.38;5.20;;;17.80;99.90;;;;;;4176204;28;20618;-75
2021/12/19 07:02:17;;;;;;;5.43;4.50;;;17.80;99.90;;;;;;4183507;28;20269;-75
2021/12/19 07:04:19;;;;;;;5.70;4.55;;;17.80;99.90;;;;;;4183472;28;20216;-75
2021/12/19 07:06:22;;;;;;;5.93;4.95;;;17.80;99.90;;;;;;4183503;28;20223;-75
2021/12/19 07:08:24;;;;;;;6.50;5.25;;;17.80;99.90;;;;;;4183002;28;20223;-75
2021/12/19 07:10:26;;;;;;;5.57;4.70;;;17.80;99.90;;;;;;4183669;28;20273;-74
2021/12/19 07:12:30;;;;;;;5.60;4.82;;;17.80;99.90;;;;;;4182935;28;20219;-75
2021/12/19 07:14:33;;;;;;;5.78;4.70;;;17.80;99.90;;;;;;4183578;28;20274;-75
2021/12/19 07:16:36;;;;;;;6.03;4.53;;;17.80;99.90;;;;;;4183260;28;20212;-75
2021/12/19 07:18:38;;;;;;;7.07;4.90;;;17.80;99.90;;;;;;4183369;28;20270;-75
2021/12/19 07:20:42;;;;;;;6.60;4.90;;;17.80;99.90;;;;;;4183300;28;20665;-75
2021/12/19 07:22:45;;;;;;;5.82;4.68;;;17.80;99.90;;;;;;4183041;28;20234;-75
2021/12/19 07:24:47;;;;;;;6.25;5.25;;;17.80;99.90;;;;;;4182911;28;20269;-75
2021/12/19 07:26:49;;;;;;;6.82;4.97;;;17.70;99.90;;;;;;4182777;28;20219;-75
2021/12/19 07:28:53;;;;;;;6.57;5.10;;;17.80;99.90;;;;;;4183278;28;20282;-75
2021/12/19 07:30:56;;;;;;;6.47;5.43;;;17.80;99.90;;;;;;4182695;28;20285;-74
2021/12/19 07:32:58;;;;;;;6.88;5.68;;;17.80;99.90;;;;;;4178626;28;20236;-75
2021/12/19 07:35:01;;;;;;;7.22;5.57;;;17.80;99.90;;;;;;4166662;28;20216;-75
2021/12/19 07:37:04;;;;;;;7.88;6.15;;;17.70;99.90;;;;;;4166857;28;20221;-75
2021/12/19 07:39:10;;;;;;;7.18;5.63;;;17.70;99.90;;;;;;4166151;28;20628;-75
2021/12/19 07:41:12;;;;;;;6.43;5.18;;;17.70;99.90;;;;;;4166597;28;20262;-75
2021/12/19 07:43:15;;;;;;;8.50;5.55;;;17.80;99.90;;;;;;4166668;28;20213;-74
2021/12/19 07:45:19;;;;;;;7.15;5.05;;;17.80;99.90;;;;;;4165884;28;20216;-75
2021/12/19 07:47:21;;;;;;;6.55;5.22;;;17.70;99.90;;;;;;4176988;28;20215;-75
2021/12/19 07:49:23;;;;;;;6.85;5.53;;;17.70;99.90;;;;;;4182560;28;20215;-75
2021/12/19 07:51:25;;;;;;;8.35;6.03;;;17.70;99.90;;;;;;4182843;28;20261;-75
2021/12/19 07:53:28;;;;;;;7.57;5.72;;;17.80;99.90;;;;;;4182614;28;20251;-74
2021/12/19 07:55:31;;;;;;;7.70;6.00;;;17.70;99.90;;;;;;4182146;28;20679;-75
2021/12/19 07:57:34;;;;;;;8.20;5.85;;;17.70;99.90;;;;;;4182104;28;20684;-75
2021/12/19 07:59:36;;;;;;;7.82;6.07;;;17.70;99.90;;;;;;4182733;28;20281;-75
2021/12/19 08:01:39;;;;;;;8.40;5.75;;;17.70;99.90;;;;;;4182923;28;20675;-74
2021/12/19 08:03:42;;;;;;;8.43;6.35;;;17.70;99.90;;;;;;4182304;28;20215;-75
2021/12/19 08:05:44;;;;;;;7.63;6.18;;;17.70;99.90;;;;;;4182387;28;20241;-74
2021/12/19 08:07:48;;;;;;;8.00;5.85;;;17.70;99.90;;;;;;4182369;28;20262;-75
2021/12/19 08:10:12;;;;;;;6.40;5.28;;;17.70;99.90;;;;;;4182271;28;20215;-74
2021/12/19 08:12:14;;;;;;;7.50;5.82;;;17.70;99.90;;;;;;4182482;28;20258;-75
2021/12/19 08:14:17;;;;;;;7.45;6.03;;;17.70;99.90;;;;;;4182572;28;20649;-75
2021/12/19 08:16:19;;;;;;;8.75;6.00;;;17.70;99.90;;;;;;4182225;28;20208;-75
2021/12/19 08:18:23;;;;;;;7.93;6.03;;;17.70;99.90;;;;;;4182032;28;20224;-75
2021/12/19 08:20:26;;;;;;;7.32;5.95;;;17.70;99.90;;;;;;4177122;28;20220;-75
2021/12/19 08:22:30;;;;;;;7.05;5.80;;;17.70;99.90;;;;;;4180645;28;20212;-75
2021/12/19 08:24:32;;;;;;;9.13;6.38;;;17.70;99.90;;;;;;4182084;28;20668;-75
2021/12/19 08:26:35;;;;;;;8.32;6.03;;;17.70;99.90;;;;;;4181857;28;20212;-75
2021/12/19 08:28:37;;;;;;;8.15;6.32;;;17.70;99.90;;;;;;4182202;28;20220;-75
2021/12/19 08:30:39;;;;;;;8.90;6.47;;;17.70;99.90;;;;;;4182119;28;20262;-75
2021/12/19 08:32:42;;;;;;;7.97;5.80;;;17.70;99.90;;;;;;4179885;28;20263;-75
2021/12/19 08:34:46;;;;;;;8.65;6.07;;;17.60;99.90;;;;;;4165450;28;20240;-75
2021/12/19 08:36:48;;;;;;;6.75;5.55;;;17.70;99.90;;;;;;4165974;28;20267;-75
2021/12/19 08:38:51;;;;;;;7.53;5.90;;;17.60;99.90;;;;;;4165205;28;20287;-75
2021/12/19 08:40:53;;;;;;;7.40;5.90;;;17.60;99.90;;;;;;4165350;28;20930;-75
2021/12/19 08:42:57;;;;;;;8.27;6.07;;;17.60;99.90;;;;;;4164792;28;20673;-75
2021/12/19 08:45:00;;;;;;;9.35;6.50;;;17.60;99.90;;;;;;4165129;28;20620;-75
2021/12/19 08:47:02;;;;;;;8.55;6.05;;;17.60;99.90;;;;;;4165367;28;20275;-75
2021/12/19 08:49:05;;;;;;;7.28;5.72;;;17.60;99.90;;;;;;4165228;28;20216;-75
2021/12/19 08:51:09;;;;;;;9.75;6.43;;;17.60;99.90;;;;;;4165439;28;20271;-74
2021/12/19 08:53:12;;;;;;;6.93;5.65;;;17.60;99.90;;;;;;4165685;28;20220;-75
2021/12/19 08:55:14;;;;;;;8.32;6.03;;;17.60;99.90;;;;;;4164730;28;20633;-75
2021/12/19 08:57:16;;;;;;;7.10;5.70;;;17.60;99.90;;;;;;4165671;28;20220;-75
2021/12/19 08:59:19;;;;;;;8.73;6.03;;;17.60;99.90;;;;;;4165288;28;20220;-75
2021/12/19 09:01:22;;;;;;;7.88;5.93;;;17.60;99.90;;;;;;4164789;28;20260;-75
2021/12/19 09:03:24;;;;;;;7.18;5.40;;;17.60;99.90;;;;;;4164971;28;20216;-75
2021/12/19 09:05:29;;;;;;;7.82;5.80;;;17.60;99.90;;;;;;4164977;28;20271;-74
2021/12/19 09:07:33;;;;;;;7.75;5.55;;;17.60;99.90;;;;;;4165379;28;20216;-75
2021/12/19 09:09:35;;;;;;;7.63;5.97;;;17.60;99.90;;;;;;4164841;28;20217;-75
2021/12/19 09:11:38;;;;;;;8.05;5.70;;;17.60;99.90;;;;;;4165277;28;20624;-75
2021/12/19 09:13:40;;;;;;;6.97;5.50;;;17.60;99.90;;;;;;4164788;28;20220;-75
2021/12/19 09:15:43;;;;;;;7.93;5.55;;;17.60;99.90;;;;;;4164924;28;20263;-75
2021/12/19 09:17:45;;;;;;;7.45;5.32;;;17.60;99.90;;;;;;4180190;28;20216;-75
2021/12/19 09:19:48;;;;;;;6.43;5.72;;;17.50;99.90;;;;;;4181408;28;20224;-75
2021/12/19 09:21:50;;;;;;;8.05;5.90;;;17.60;99.90;;;;;;4168999;28;20240;-74
2021/12/19 09:23:55;;;;;;;6.47;5.20;;;17.60;99.90;;;;;;4164646;28;20270;-75
2021/12/19 09:25:57;;;;;;;7.13;5.10;;;17.60;99.90;;;;;;4164733;28;20279;-75
2021/12/19 09:27:59;;;;;;;7.40;5.40;;;17.60;99.90;;;;;;4164467;28;20287;-75
2021/12/19 09:30:02;;;;;;;7.28;5.05;;;17.60;99.90;;;;;;4164880;28;20267;-75
2021/12/19 09:32:05;;;;;;;7.47;5.68;;;17.50;99.90;;;;;;4164624;28;20241;-74
2021/12/19 09:34:07;;;;;;;8.23;5.28;;;17.50;99.90;;;;;;4164211;28;20232;-75
2021/12/19 09:36:10;;;;;;;6.68;5.25;;;17.50;99.90;;;;;;4164288;28;20217;-75
2021/12/19 09:38:13;;;;;;;6.68;5.25;;;17.50;99.90;;;;;;4164653;28;20258;-75
2021/12/19 09:40:21;;;;;;;6.57;4.82;;;17.50;99.90;;;;;;4164192;28;20736;-75
2021/12/19 09:42:33;;;;;;;7.15;5.47;;;17.50;99.90;;;;;;4164274;28;20290;-75
2021/12/19 09:44:35;;;;;;;6.78;4.90;;;17.50;99.90;;;;;;4164783;28;20216;-75
2021/12/19 09:46:40;;;;;;;7.03;5.20;;;17.50;99.90;;;;;;4164833;28;20274;-75
2021/12/19 09:48:44;;;;;;;7.18;5.40;;;17.50;99.90;;;;;;4164622;28;20216;-75
2021/12/19 09:50:49;;;;;;;7.57;5.22;;;17.60;99.90;;;;;;4164726;28;20216;-75
2021/12/19 09:52:51;;;;;;;6.60;4.80;;;17.50;99.90;;;;;;4164479;28;20629;-75
2021/12/19 09:54:54;;;;;;;7.72;5.43;;;17.60;99.90;;;;;;4164388;28;20244;-75
2021/12/19 09:56:57;;;;;;;5.82;4.32;;;17.60;99.90;;;;;;4164506;28;20351;-75
2021/12/19 09:59:00;;;;;;;5.55;4.68;;;17.60;99.90;;;;;;4164177;28;20624;-75
2021/12/19 10:01:05;;;;;;;6.18;4.78;;;17.50;99.90;;;;;;4167606;28;21007;-74
2021/12/19 10:03:11;;;;;;;6.90;5.00;;;17.50;99.90;;;;;;4171238;28;20270;-75
2021/12/19 10:05:19;;;;;;;5.50;4.70;;;17.50;99.90;;;;;;4180947;28;20610;-75
2021/12/19 10:07:25;;;;;;;6.70;4.68;;;17.50;99.90;;;;;;4172193;28;20610;-75
2021/12/19 10:09:28;;;;;;;5.53;4.72;;;17.50;99.90;;;;;;4173797;28;20223;-75
2021/12/19 10:11:42;;;;;;;5.85;4.60;;;17.50;99.90;;;;;;4179988;28;20216;-75
2021/12/19 10:13:47;;;;;;;5.28;4.28;;;17.50;99.90;;;;;;4180614;28;20258;-75
2021/12/19 10:15:50;;;;;;;6.00;4.68;;;17.50;99.90;;;;;;4180771;28;20243;-75
2021/12/19 10:18:01;;;;;;;5.75;4.10;;;17.50;99.90;;;;;;4164295;28;20220;-75
2021/12/19 10:20:07;;;;;;;6.07;5.00;;;17.60;99.90;;;;;;4176606;28;20614;-75
2021/12/19 10:22:28;;;;;;;5.93;4.30;;;17.50;99.90;;;;;;4180665;28;20718;-74
2021/12/19 10:24:31;;;;;;;5.68;4.28;;;17.50;99.90;;;;;;4180941;28;20268;-75
2021/12/19 10:26:44;;;;;;;6.13;4.57;;;17.50;99.90;;;;;;4180635;28;20622;-75
2021/12/19 10:28:52;;;;;;;5.50;4.35;;;17.50;99.90;;;;;;4180711;28;20652;-75
2021/12/19 10:30:55;;;;;;;5.32;4.28;;;17.50;99.90;;;;;;4176141;28;20290;-75
2021/12/19 10:33:00;;;;;;;5.47;4.28;;;17.50;99.90;;;;;;4164044;28;20615;-75
2021/12/19 10:35:17;;;;;;;5.20;4.25;;;17.50;99.90;;;;;;4163907;28;20232;-75
2021/12/19 10:37:32;;;;;;;4.68;4.18;;;17.50;99.90;;;;;;4164071;28;20212;-75
2021/12/19 10:39:39;;;;;;;5.32;4.45;;;17.50;99.90;;;;;;4164154;28;20228;-75
2021/12/19 10:41:43;;;;;;;5.05;4.07;;;17.50;99.90;;;;;;4164371;28;20216;-75
2021/12/19 10:43:51;;;;;;;5.45;4.13;;;17.50;99.90;;;;;;4164454;28;20694;-75
2021/12/19 10:45:58;;;;;;;6.18;4.55;;;17.50;99.90;;;;;;4164014;28;20216;-74
2021/12/19 10:48:27;;;;;;;5.63;4.15;;;17.50;99.90;;;;;;4164126;28;20215;-75
2021/12/19 10:50:42;;;;;;;4.95;3.72;;;17.50;99.90;;;;;;4164146;28;20271;-75
2021/12/19 10:52:45;;;;;;;6.07;4.47;;;17.50;99.90;;;;;;4164114;28;20224;-75
2021/12/19 10:55:07;;;;;;;5.78;4.40;;;17.50;99.90;;;;;;4164066;28;20287;-75
2021/12/19 10:57:14;;;;;;;5.40;3.92;;;17.50;99.90;;;;;;4147371;28;20280;-75
2021/12/19 10:59:17;;;;;;;5.57;4.00;;;17.50;99.90;;;;;;4147510;28;20213;-74
2021/12/19 11:01:29;;;;;;;4.85;3.72;;;17.50;99.90;;;;;;4147794;28;20267;-75
2021/12/19 11:03:42;;;;;;;6.05;4.53;;;17.40;99.90;;;;;;4147287;28;20608;-75
2021/12/19 11:05:45;;;;;;;5.25;3.85;;;17.40;99.90;;;;;;4147485;28;20251;-75
2021/12/19 11:08:01;;;;;;;5.38;4.30;;;17.50;99.90;;;;;;4150954;28;20221;-75
2021/12/19 11:10:26;;;;;;;5.97;4.05;;;17.50;99.90;;;;;;4150624;28;20713;-75
2021/12/19 11:12:28;;;;;;;4.68;3.85;;;17.50;99.90;;;;;;4150588;28;20217;-75
2021/12/19 11:14:32;;;;;;;5.28;4.07;;;17.50;99.90;;;;;;4150550;28;20632;-75
2021/12/19 11:16:36;;;;;;;4.88;3.95;;;17.50;99.90;;;;;;4156532;28;20251;-75
2021/12/19 11:18:39;;;;;;;4.57;3.75;;;17.40;99.90;;;;;;4166642;28;20628;-75
2021/12/19 11:20:42;;;;;;;5.82;4.53;;;17.50;99.90;;;;;;4166670;28;20263;-75
2021/12/19 11:22:44;;;;;;;5.32;3.72;;;17.50;99.90;;;;;;4166527;28;20628;-75
2021/12/19 11:24:46;;;;;;;4.68;3.80;;;17.50;99.90;;;;;;4166824;28;20275;-75
2021/12/19 11:26:51;;;;;;;4.82;3.85;;;17.50;99.90;;;;;;4166972;28;20228;-75
2021/12/19 11:28:56;;;;;;;5.47;4.00;;;17.50;99.90;;;;;;4166248;28;20271;-75
2021/12/19 11:30:59;;;;;;;4.28;3.72;;;17.50;99.90;;;;;;4171279;28;20258;-75